Argyle, Florida
Current Conditions -  °F | °C
As of 8:55 AM on Saturday 01 Nov 2014 (Local Time) from K54J Reporting Station
Clear Clear  
Wind Chill: 34°   Ceiling: Unl
Heat Index: 41°   Visibility: 10mi
Dew Point: 26°   Wind: 13mph
Humidity: 55%   Direction: 340°NNW
Pressure: 30.19"   Gusts: 26mph
Location:  30.72°N, 86.04°W
Report Text: K54J 011355Z AUTO 34011G23KT 10SM CLR 05/M03 A3019 RMK AO2 T00521031
Loading
Personal Weather Stations






























Interactive Weather Map
Tropical Storm Tracking
New forecast layout! Learn more

10-Day Weather Forecast

Advertisements
Track Severe Weather on mobile